createdAt,value
2023-04-02T00:00:24.805Z,9.278270
2023-04-02T00:01:24.777Z,9.278382
2023-04-02T00:02:24.652Z,9.278286
2023-04-02T00:03:24.688Z,9.278174
2023-04-02T00:04:24.627Z,9.278033
2023-04-02T00:05:24.550Z,9.278362
2023-04-02T00:06:25.569Z,9.278180
2023-04-02T00:07:24.539Z,9.278413
2023-04-02T00:08:24.562Z,9.278347
2023-04-02T00:09:24.545Z,9.278269
2023-04-02T00:10:24.473Z,9.278267
2023-04-02T00:11:24.465Z,9.278241
2023-04-02T00:12:24.427Z,9.278267
2023-04-02T00:13:24.427Z,9.278292
2023-04-02T00:14:24.449Z,9.278129
2023-04-02T00:15:24.383Z,9.278156
2023-04-02T00:16:24.391Z,9.278283
2023-04-02T00:17:24.344Z,9.278442
2023-04-02T00:18:24.382Z,9.278234
2023-04-02T00:19:24.342Z,9.278078
2023-04-02T00:20:24.302Z,9.278308
2023-04-02T00:21:24.295Z,9.278300
2023-04-02T00:22:24.287Z,9.278287
2023-04-02T00:23:24.250Z,9.278300
2023-04-02T00:24:24.266Z,9.278246
2023-04-02T00:25:24.209Z,9.278271
2023-04-02T00:26:24.211Z,9.278133
2023-04-02T00:27:24.170Z,9.278284
2023-04-02T00:28:24.178Z,9.278264
2023-04-02T00:29:24.208Z,9.278217
2023-04-02T00:30:24.134Z,9.278228
2023-04-02T00:31:24.142Z,9.278201
2023-04-02T00:32:24.102Z,9.278259
2023-04-02T00:33:24.070Z,9.278235
2023-04-02T00:34:24.100Z,9.278270
2023-04-02T00:35:24.059Z,9.278261
2023-04-02T00:36:24.028Z,9.278204
2023-04-02T00:37:24.085Z,9.278321
2023-04-02T00:38:23.992Z,9.278210
2023-04-02T00:39:24.047Z,9.278227
2023-04-02T00:40:24.004Z,9.278149
2023-04-02T00:41:23.950Z,9.278285
2023-04-02T00:42:23.918Z,9.278257
2023-04-02T00:43:23.912Z,9.278280
2023-04-02T00:44:24.919Z,9.278238
2023-04-02T00:45:23.873Z,9.278223
2023-04-02T00:46:23.875Z,9.278310
2023-04-02T00:47:23.844Z,9.278319
2023-04-02T00:48:23.829Z,9.278334
2023-04-02T00:49:23.887Z,9.278256
2023-04-02T00:50:23.805Z,9.278226
2023-04-02T00:51:23.772Z,9.278329
2023-04-02T00:52:23.771Z,9.278332
2023-04-02T00:53:23.732Z,9.278352
2023-04-02T00:54:23.753Z,9.278407
2023-04-02T00:55:23.710Z,9.278369
2023-04-02T00:56:23.699Z,9.278395
2023-04-02T00:57:23.707Z,9.278402
2023-04-02T00:58:23.665Z,9.278376
2023-04-02T00:59:23.673Z,9.278267
2023-04-02T01:00:23.620Z,9.278286
2023-04-02T01:01:23.727Z,9.278255
2023-04-02T01:02:23.640Z,9.278434
2023-04-02T01:03:23.658Z,9.278291
2023-04-02T01:04:23.608Z,9.278379
2023-04-02T01:05:23.576Z,9.278338
2023-04-02T01:06:23.518Z,9.278414
2023-04-02T01:07:23.534Z,9.278369
2023-04-02T01:08:23.481Z,9.278303
2023-04-02T01:09:23.525Z,9.278382
2023-04-02T01:10:23.537Z,9.278408
2023-04-02T01:11:23.432Z,9.278378
2023-04-02T01:12:23.413Z,9.278327
2023-04-02T01:13:23.406Z,9.278203
2023-04-02T01:14:23.421Z,9.278290
2023-04-02T01:15:23.362Z,9.278330
2023-04-02T01:16:23.376Z,9.278343
2023-04-02T01:17:23.340Z,9.278440
2023-04-02T01:18:23.297Z,9.278297
2023-04-02T01:19:23.326Z,9.278355
2023-04-02T01:20:23.263Z,9.278311
2023-04-02T01:21:23.252Z,9.278219
2023-04-02T01:22:23.241Z,9.278187
2023-04-02T01:23:23.222Z,9.278342
2023-04-02T01:24:23.239Z,9.278367
2023-04-02T01:25:23.182Z,9.278316
2023-04-02T01:26:23.203Z,9.278355
2023-04-02T01:27:23.150Z,9.278302
2023-04-02T01:28:23.141Z,9.278297
2023-04-02T01:29:23.153Z,9.278267
2023-04-02T01:30:24.099Z,9.278322
2023-04-02T01:31:23.240Z,9.278370
2023-04-02T01:32:23.081Z,9.278262
2023-04-02T01:33:23.056Z,9.278319
2023-04-02T01:34:24.433Z,9.278416
2023-04-02T01:35:23.040Z,9.278398
2023-04-02T01:36:22.988Z,9.278365
2023-04-02T01:37:23.064Z,9.278378
2023-04-02T01:38:22.970Z,9.278377
2023-04-02T01:39:23.011Z,9.278524
2023-04-02T01:40:22.971Z,9.278484
2023-04-02T01:41:22.922Z,9.278340
2023-04-02T01:42:22.894Z,9.278358
2023-04-02T01:43:22.881Z,9.278348
2023-04-02T01:44:22.857Z,9.278380
2023-04-02T01:45:22.901Z,9.278333
2023-04-02T01:46:22.911Z,9.278298
2023-04-02T01:47:23.809Z,9.278339
2023-04-02T01:48:22.789Z,9.278409
2023-04-02T01:49:22.776Z,9.278469
2023-04-02T01:50:22.829Z,9.278383
2023-04-02T01:51:22.743Z,9.278477
2023-04-02T01:52:22.754Z,9.278286
2023-04-02T01:53:22.707Z,9.278436
2023-04-02T01:54:22.698Z,9.278280
2023-04-02T01:55:22.706Z,9.278297
2023-04-02T01:56:22.689Z,9.278365
2023-04-02T01:57:22.695Z,9.278282
2023-04-02T01:58:22.653Z,9.278269
2023-04-02T01:59:22.625Z,9.278242
2023-04-02T02:00:22.638Z,9.278338
2023-04-02T02:01:23.608Z,9.278363
2023-04-02T02:02:22.582Z,9.278412
2023-04-02T02:03:22.542Z,9.278463
2023-04-02T02:04:22.542Z,9.278533
2023-04-02T02:05:22.533Z,9.278429
2023-04-02T02:06:22.493Z,9.278484
2023-04-02T02:07:22.485Z,9.278465
2023-04-02T02:08:22.461Z,9.278383
2023-04-02T02:09:22.446Z,9.278367
2023-04-02T02:10:22.469Z,9.278362
2023-04-02T02:11:22.416Z,9.278319
2023-04-02T02:12:22.379Z,9.278447
2023-04-02T02:13:22.376Z,9.278427
2023-04-02T02:14:22.344Z,9.278345
2023-04-02T02:15:22.365Z,9.278412
2023-04-02T02:16:22.356Z,9.278357
2023-04-02T02:17:22.329Z,9.278371
2023-04-02T02:18:22.285Z,9.278120
2023-04-02T02:19:22.267Z,9.278158
2023-04-02T02:20:22.280Z,9.278344
2023-04-02T02:21:22.233Z,9.278452
2023-04-02T02:22:22.228Z,9.278448
2023-04-02T02:23:22.208Z,9.278440
2023-04-02T02:24:22.181Z,9.278332
2023-04-02T02:25:22.202Z,9.278600
2023-04-02T02:26:22.158Z,9.278709
2023-04-02T02:27:22.129Z,9.278700
2023-04-02T02:28:22.128Z,9.278462
2023-04-02T02:29:22.096Z,9.278417
2023-04-02T02:30:22.113Z,9.278378
2023-04-02T02:31:22.112Z,9.278326
2023-04-02T02:32:22.077Z,9.278317
2023-04-02T02:33:22.047Z,9.278475
2023-04-02T02:34:22.018Z,9.278573
2023-04-02T02:35:22.024Z,9.278672
2023-04-02T02:36:22.033Z,9.278817
2023-04-02T02:37:22.002Z,9.278827
2023-04-02T02:38:21.954Z,9.278764
2023-04-02T02:39:21.942Z,9.278773
2023-04-02T02:40:21.967Z,9.279091
2023-04-02T02:41:21.933Z,9.278928
2023-04-02T02:42:21.877Z,9.278583
2023-04-02T02:43:21.883Z,9.278706
2023-04-02T02:44:21.852Z,9.278656
2023-04-02T02:45:21.876Z,9.278649
2023-04-02T02:46:21.832Z,9.278516
2023-04-02T02:47:21.894Z,9.278408
2023-04-02T02:48:21.770Z,9.278384
2023-04-02T02:49:21.787Z,9.278400
2023-04-02T02:50:21.797Z,9.278342
2023-04-02T02:51:21.720Z,9.278280
2023-04-02T02:52:21.713Z,9.278275
2023-04-02T02:53:21.693Z,9.278317
2023-04-02T02:54:21.689Z,9.278367
2023-04-02T02:55:21.701Z,9.278347
2023-04-02T02:56:22.646Z,9.278336
2023-04-02T02:57:21.674Z,9.278412
2023-04-02T02:58:21.629Z,9.278339
2023-04-02T02:59:21.602Z,9.278302
2023-04-02T03:00:21.697Z,9.278355
2023-04-02T03:01:21.652Z,9.278342
2023-04-02T03:02:21.628Z,9.278399
2023-04-02T03:03:21.674Z,9.278357
2023-04-02T03:04:21.533Z,9.278318
2023-04-02T03:05:21.516Z,9.278275
2023-04-02T03:06:21.472Z,9.278240
2023-04-02T03:07:21.464Z,9.278458
2023-04-02T03:08:21.424Z,9.278109
2023-04-02T03:09:21.444Z,9.278080
2023-04-02T03:10:21.436Z,9.278064
2023-04-02T03:11:21.382Z,9.278262
2023-04-02T03:12:21.363Z,9.277938
2023-04-02T03:13:21.351Z,9.277850
2023-04-02T03:14:21.336Z,9.278186
2023-04-02T03:15:21.332Z,9.278106
2023-04-02T03:16:21.403Z,9.278012
2023-04-02T03:17:21.278Z,9.277898
2023-04-02T03:18:21.257Z,9.278122
2023-04-02T03:19:21.241Z,9.278320
2023-04-02T03:20:21.252Z,9.278266
2023-04-02T03:21:21.213Z,9.278285
2023-04-02T03:22:21.199Z,9.277951
2023-04-02T03:23:21.179Z,9.278360
2023-04-02T03:24:21.161Z,9.278290
2023-04-02T03:25:21.184Z,9.278522
2023-04-02T03:26:21.136Z,9.278148
2023-04-02T03:27:21.123Z,9.278425
2023-04-02T03:28:21.100Z,9.278803
2023-04-02T03:29:21.144Z,9.278496
2023-04-02T03:30:21.091Z,9.278320
2023-04-02T03:31:52.928Z,9.278364
2023-04-02T03:32:21.027Z,9.278419
2023-04-02T03:33:21.014Z,9.278418
2023-04-02T03:34:20.991Z,9.278504
2023-04-02T03:35:20.995Z,9.278614
2023-04-02T03:36:21.055Z,9.278546
2023-04-02T03:37:20.944Z,9.278517
2023-04-02T03:38:20.925Z,9.278258
2023-04-02T03:39:20.956Z,9.278292
2023-04-02T03:40:20.938Z,9.278484
2023-04-02T03:41:20.870Z,9.278191
2023-04-02T03:42:20.862Z,9.278054
2023-04-02T03:43:20.858Z,9.278096
2023-04-02T03:44:21.038Z,9.278276
2023-04-02T03:45:20.841Z,9.278586
2023-04-02T03:46:20.814Z,9.278636
2023-04-02T03:47:20.782Z,9.278648
2023-04-02T03:48:20.760Z,9.279157
2023-04-02T03:49:20.731Z,9.278481
2023-04-02T03:50:20.751Z,9.278205
2023-04-02T03:51:20.704Z,9.278289
2023-04-02T03:52:20.686Z,9.278598
2023-04-02T03:53:20.714Z,9.278587
2023-04-02T03:54:20.662Z,9.278526
2023-04-02T03:55:20.671Z,9.278270
2023-04-02T03:56:20.616Z,9.278500
2023-04-02T03:57:20.624Z,9.278581
2023-04-02T03:58:20.588Z,9.278568
2023-04-02T03:59:20.586Z,9.278378
2023-04-02T04:00:20.589Z,9.278116
2023-04-02T04:01:20.545Z,9.278284
2023-04-02T04:02:20.621Z,9.278413
2023-04-02T04:03:20.500Z,9.278417
2023-04-02T04:04:20.515Z,9.278086
2023-04-02T04:05:20.504Z,9.278106
2023-04-02T04:06:21.337Z,9.278238
2023-04-02T04:07:20.431Z,9.278273
2023-04-02T04:08:20.431Z,9.278253
2023-04-02T04:09:20.391Z,9.278200
2023-04-02T04:10:20.415Z,9.278412
2023-04-02T04:11:20.376Z,9.278543
2023-04-02T04:12:20.352Z,9.278510
2023-04-02T04:13:20.357Z,9.278374
2023-04-02T04:14:20.323Z,9.278346
2023-04-02T04:15:20.333Z,9.278559
2023-04-02T04:16:20.342Z,9.278207
2023-04-02T04:17:20.268Z,9.278033
2023-04-02T04:18:20.243Z,9.278385
2023-04-02T04:19:20.226Z,9.278276
2023-04-02T04:20:20.312Z,9.277863
2023-04-02T04:21:20.210Z,9.278136
2023-04-02T04:22:20.191Z,9.278270
2023-04-02T04:23:20.180Z,9.278399
2023-04-02T04:24:20.166Z,9.278355
2023-04-02T04:25:20.156Z,9.278180
2023-04-02T04:26:20.109Z,9.278390
2023-04-02T04:27:20.105Z,9.278401
2023-04-02T04:28:20.077Z,9.278356
2023-04-02T04:29:20.069Z,9.278390
2023-04-02T04:30:20.132Z,9.278327
2023-04-02T04:31:20.121Z,9.278487
2023-04-02T04:32:20.097Z,9.278316
2023-04-02T04:33:19.988Z,9.278240
2023-04-02T04:34:20.041Z,9.278247
2023-04-02T04:35:20.015Z,9.278275
2023-04-02T04:36:19.966Z,9.278226
2023-04-02T04:37:19.933Z,9.278204
2023-04-02T04:38:19.924Z,9.278400
2023-04-02T04:39:19.895Z,9.278357
2023-04-02T04:40:19.914Z,9.278268
2023-04-02T04:41:19.856Z,9.277669
2023-04-02T04:42:19.848Z,9.277900
2023-04-02T04:43:19.828Z,9.277805
2023-04-02T04:44:19.810Z,9.278316
2023-04-02T04:45:19.830Z,9.278558
2023-04-02T04:46:19.799Z,9.278523
2023-04-02T04:47:19.760Z,9.278637
2023-04-02T04:48:19.752Z,9.278549
2023-04-02T04:49:19.772Z,9.278797
2023-04-02T04:50:19.760Z,9.278410
2023-04-02T04:51:19.696Z,9.277998
2023-04-02T04:52:19.686Z,9.278308
2023-04-02T04:53:19.668Z,9.278484
2023-04-02T04:54:19.635Z,9.278412
2023-04-02T04:55:19.693Z,9.278585
2023-04-02T04:56:19.977Z,9.278457
2023-04-02T04:57:20.604Z,9.278406
2023-04-02T04:58:19.581Z,9.278236
2023-04-02T04:59:19.566Z,9.278359
2023-04-02T05:00:19.542Z,9.278352
2023-04-02T05:01:19.566Z,9.278271
2023-04-02T05:02:19.516Z,9.278288
2023-04-02T05:03:19.502Z,9.278206
2023-04-02T05:04:19.526Z,9.278140
2023-04-02T05:05:19.450Z,9.278337
2023-04-02T05:06:20.481Z,9.278408
2023-04-02T05:07:19.422Z,9.278649
2023-04-02T05:08:19.409Z,9.278489
2023-04-02T05:09:19.385Z,9.278427
2023-04-02T05:10:19.371Z,9.278347
2023-04-02T05:11:19.386Z,9.278359
2023-04-02T05:12:19.343Z,9.278336
2023-04-02T05:13:19.321Z,9.278255
2023-04-02T05:14:19.314Z,9.278299
2023-04-02T05:15:19.316Z,9.278453
2023-04-02T05:16:19.371Z,9.278364
2023-04-02T05:17:19.261Z,9.278378
2023-04-02T05:18:19.236Z,9.278314
2023-04-02T05:19:19.210Z,9.278305
2023-04-02T05:20:19.191Z,9.278162
2023-04-02T05:21:19.209Z,9.278212
2023-04-02T05:22:19.158Z,9.278228
2023-04-02T05:23:19.232Z,9.278243
2023-04-02T05:24:19.137Z,9.278321
2023-04-02T05:25:19.111Z,9.278316
2023-04-02T05:26:19.130Z,9.278442
2023-04-02T05:27:19.080Z,9.278511
2023-04-02T05:28:19.074Z,9.278389
2023-04-02T05:29:19.047Z,9.278385
2023-04-02T05:30:20.147Z,9.278427
2023-04-02T05:31:20.127Z,9.278373
2023-04-02T05:32:18.987Z,9.278356
2023-04-02T05:33:18.978Z,9.278187
2023-04-02T05:34:18.950Z,9.278255
2023-04-02T05:35:18.971Z,9.278390
2023-04-02T05:36:19.009Z,9.278480
2023-04-02T05:37:18.911Z,9.278393
2023-04-02T05:38:18.885Z,9.278436
2023-04-02T05:39:18.872Z,9.278440
2023-04-02T05:40:18.847Z,9.278486
2023-04-02T05:41:18.870Z,9.278474
2023-04-02T05:42:18.834Z,9.278380
2023-04-02T05:43:18.804Z,9.278391
2023-04-02T05:44:18.804Z,9.278339
2023-04-02T05:45:18.764Z,9.278316
2023-04-02T05:46:18.902Z,9.278283
2023-04-02T05:47:18.730Z,9.278308
2023-04-02T05:48:18.794Z,9.278348
2023-04-02T05:49:18.689Z,9.278304
2023-04-02T05:50:18.681Z,9.278301
2023-04-02T05:51:18.717Z,9.278348
2023-04-02T05:52:18.649Z,9.278293
2023-04-02T05:53:18.627Z,9.278371
2023-04-02T05:54:18.608Z,9.278278
2023-04-02T05:55:18.618Z,9.278255
2023-04-02T05:56:18.804Z,9.278339
2023-04-02T05:57:19.387Z,9.278329
2023-04-02T05:59:19.531Z,9.278285
2023-04-02T06:00:18.517Z,9.278405
2023-04-02T06:01:18.510Z,9.278450
2023-04-02T06:02:18.539Z,9.278344
2023-04-02T06:03:18.529Z,9.278350
2023-04-02T06:04:18.438Z,9.278389
2023-04-02T06:05:18.423Z,9.278270
2023-04-02T06:06:18.452Z,9.278282
2023-04-02T06:07:18.421Z,9.278282
2023-04-02T06:08:18.362Z,9.278444
2023-04-02T06:09:18.356Z,9.278557
2023-04-02T06:10:18.346Z,9.278577
2023-04-02T06:11:18.343Z,9.278365
2023-04-02T06:12:18.296Z,9.278481
2023-04-02T06:13:18.277Z,9.278410
2023-04-02T06:14:18.268Z,9.278315
2023-04-02T06:15:18.245Z,9.278311
2023-04-02T06:16:18.274Z,9.277814
2023-04-02T06:17:18.213Z,9.277990
2023-04-02T06:18:18.210Z,9.278106
2023-04-02T06:19:18.176Z,9.278099
2023-04-02T06:20:18.176Z,9.278188
2023-04-02T06:21:19.193Z,9.278270
2023-04-02T06:22:18.133Z,9.278265
2023-04-02T06:23:18.120Z,9.278281
2023-04-02T06:24:18.100Z,9.278305
2023-04-02T06:25:18.075Z,9.278277
2023-04-02T06:26:18.087Z,9.278256
2023-04-02T06:27:18.043Z,9.278260
2023-04-02T06:28:18.038Z,9.278226
2023-04-02T06:29:18.017Z,9.278362
2023-04-02T06:30:18.001Z,9.278376
2023-04-02T06:31:18.030Z,9.278321
2023-04-02T06:32:17.954Z,9.278299
2023-04-02T06:33:17.936Z,9.278291
2023-04-02T06:34:17.926Z,9.278296
2023-04-02T06:35:17.916Z,9.278284
2023-04-02T06:36:17.972Z,9.278283
2023-04-02T06:37:17.890Z,9.278226
2023-04-02T06:38:17.851Z,9.278284
2023-04-02T06:39:17.841Z,9.278259
2023-04-02T06:40:17.850Z,9.278211
2023-04-02T06:41:17.836Z,9.278279
2023-04-02T06:42:17.819Z,9.278383
2023-04-02T06:43:17.775Z,9.278312
2023-04-02T06:44:17.747Z,9.278348
2023-04-02T06:45:17.738Z,9.278317
2023-04-02T06:46:17.781Z,9.278296
2023-04-02T06:47:17.705Z,9.278288
2023-04-02T06:48:17.703Z,9.278191
2023-04-02T06:49:17.678Z,9.278319
2023-04-02T06:50:17.680Z,9.278264
2023-04-02T06:51:17.678Z,9.278309
2023-04-02T06:52:17.629Z,9.278349
2023-04-02T06:53:17.608Z,9.278373
2023-04-02T06:54:17.590Z,9.278380
2023-04-02T06:55:18.665Z,9.278347
2023-04-02T06:56:17.579Z,9.278279
2023-04-02T06:57:17.638Z,9.278001
2023-04-02T06:58:17.539Z,9.278266
2023-04-02T06:59:17.518Z,9.278307
2023-04-02T07:00:17.491Z,9.278237
2023-04-02T07:01:17.518Z,9.278251
2023-04-02T07:02:17.493Z,9.278230
2023-04-02T07:03:17.449Z,9.278369
2023-04-02T07:04:17.450Z,9.278478
2023-04-02T07:05:17.413Z,9.278490
2023-04-02T07:06:17.435Z,9.278467
2023-04-02T07:07:17.367Z,9.278349
2023-04-02T07:08:17.370Z,9.278269
2023-04-02T07:09:17.343Z,9.278244
2023-04-02T07:10:17.310Z,9.278307
2023-04-02T07:11:19.406Z,9.278199
2023-04-02T07:12:17.273Z,9.278407
2023-04-02T07:13:17.271Z,9.278205
2023-04-02T07:14:17.239Z,9.278240
2023-04-02T07:15:17.237Z,9.278212
2023-04-02T07:16:17.326Z,9.278241
2023-04-02T07:17:17.191Z,9.278277
2023-04-02T07:18:17.209Z,9.278293
2023-04-02T07:19:17.183Z,9.278253
2023-04-02T07:20:17.154Z,9.278195
2023-04-02T07:21:17.153Z,9.278235
2023-04-02T07:22:17.134Z,9.278309
2023-04-02T07:23:17.138Z,9.278363
2023-04-02T07:24:18.104Z,9.278275
2023-04-02T07:25:17.074Z,9.278378
2023-04-02T07:26:17.035Z,9.278272
2023-04-02T07:27:17.066Z,9.278345
2023-04-02T07:28:17.009Z,9.278319
2023-04-02T07:29:16.981Z,9.278239
2023-04-02T07:30:16.969Z,9.278185
2023-04-02T07:31:17.030Z,9.278071
2023-04-02T07:32:16.971Z,9.278141
2023-04-02T07:33:16.934Z,9.278227
2023-04-02T07:34:16.923Z,9.278309
2023-04-02T07:35:16.889Z,9.278339
2023-04-02T07:36:16.903Z,9.278255
2023-04-02T07:37:17.881Z,9.278444
2023-04-02T07:38:16.828Z,9.278327
2023-04-02T07:39:16.831Z,9.278255
2023-04-02T07:40:16.810Z,9.278240
2023-04-02T07:41:16.783Z,9.278372
2023-04-02T07:42:16.809Z,9.278285
2023-04-02T07:43:16.788Z,9.278213
2023-04-02T07:44:16.745Z,9.278359
2023-04-02T07:45:16.714Z,9.278348
2023-04-02T07:46:16.842Z,9.278493
2023-04-02T07:47:16.713Z,9.278285
2023-04-02T07:48:16.672Z,9.278377
2023-04-02T07:49:16.653Z,9.278483
2023-04-02T07:50:16.634Z,9.278419
2023-04-02T07:51:16.612Z,9.278337
2023-04-02T07:52:16.615Z,9.278345
2023-04-02T07:53:16.567Z,9.278296
2023-04-02T07:54:16.556Z,9.278320
2023-04-02T07:55:16.535Z,9.278357
2023-04-02T07:56:16.521Z,9.278433
2023-04-02T07:57:16.572Z,9.278389
2023-04-02T07:58:16.486Z,9.278493
2023-04-02T07:59:16.471Z,9.278365
2023-04-02T08:00:16.450Z,9.278349
2023-04-02T08:01:16.466Z,9.278342
2023-04-02T08:02:16.545Z,9.278390
2023-04-02T08:03:16.484Z,9.278322
2023-04-02T08:04:16.444Z,9.278324
2023-04-02T08:05:16.374Z,9.278326
2023-04-02T08:06:16.364Z,9.278275
2023-04-02T08:07:16.360Z,9.278301
2023-04-02T08:08:16.320Z,9.278301
2023-04-02T08:09:16.301Z,9.278357
2023-04-02T08:10:16.280Z,9.278344
2023-04-02T08:11:16.271Z,9.278331
2023-04-02T08:12:16.281Z,9.278367
2023-04-02T08:13:16.232Z,9.278398
2023-04-02T08:14:16.208Z,9.278507
2023-04-02T08:15:16.259Z,9.278500
2023-04-02T08:16:16.206Z,9.278494
2023-04-02T08:17:16.207Z,9.278347
2023-04-02T08:18:16.132Z,9.278394
2023-04-02T08:19:16.118Z,9.278500
2023-04-02T08:20:16.128Z,9.278319
2023-04-02T08:21:16.762Z,9.278285
2023-04-02T08:22:17.106Z,9.278471
2023-04-02T08:23:16.077Z,9.278496
2023-04-02T08:24:16.077Z,9.278393
2023-04-02T08:25:16.024Z,9.278425
2023-04-02T08:26:16.015Z,9.278441
2023-04-02T08:27:16.076Z,9.278419
2023-04-02T08:28:15.978Z,9.278429
2023-04-02T08:29:15.965Z,9.278548
2023-04-02T08:30:15.973Z,9.278297
2023-04-02T08:31:15.970Z,9.278411
2023-04-02T08:32:15.925Z,9.278421
2023-04-02T08:33:15.904Z,9.278435
2023-04-02T08:34:15.896Z,9.278458
2023-04-02T08:35:15.852Z,9.278414
2023-04-02T08:36:15.859Z,9.278419
2023-04-02T08:37:15.838Z,9.278339
2023-04-02T08:38:15.798Z,9.278280
2023-04-02T08:39:15.772Z,9.278231
2023-04-02T08:40:15.757Z,9.278174
2023-04-02T08:41:15.745Z,9.278342
2023-04-02T08:42:15.765Z,9.278228
2023-04-02T08:43:15.727Z,9.278227
2023-04-02T08:44:15.689Z,9.278231
2023-04-02T08:45:25.035Z,9.278299
2023-04-02T08:46:17.693Z,9.278184
2023-04-02T08:47:15.674Z,9.278267
2023-04-02T08:48:15.625Z,9.278410
2023-04-02T08:49:15.634Z,9.278517
2023-04-02T08:50:15.593Z,9.278430
2023-04-02T08:51:15.573Z,9.278390
2023-04-02T08:52:15.634Z,9.278454
2023-04-02T08:53:15.539Z,9.278218
2023-04-02T08:54:15.517Z,9.278256
2023-04-02T08:55:15.505Z,9.278392
2023-04-02T08:56:15.498Z,9.278532
2023-04-02T08:57:15.566Z,9.278324
2023-04-02T08:58:15.492Z,9.278428
2023-04-02T08:59:15.469Z,9.278417
2023-04-02T09:00:15.430Z,9.278436
2023-04-02T09:01:15.412Z,9.278321
2023-04-02T09:02:15.425Z,9.278358
2023-04-02T09:03:15.372Z,9.278436
2023-04-02T09:04:15.389Z,9.278387
2023-04-02T09:05:15.345Z,9.278320
2023-04-02T09:06:16.654Z,9.278259
2023-04-02T09:07:16.346Z,9.278385
2023-04-02T09:08:15.290Z,9.278349
2023-04-02T09:09:15.274Z,9.278329
2023-04-02T09:10:15.253Z,9.278328
2023-04-02T09:11:15.244Z,9.278276
2023-04-02T09:12:15.254Z,9.278333
2023-04-02T09:13:15.213Z,9.278427
2023-04-02T09:14:15.186Z,9.278338
2023-04-02T09:15:15.209Z,9.278296
2023-04-02T09:16:15.179Z,9.278348
2023-04-02T09:17:15.206Z,9.278437
2023-04-02T09:18:15.135Z,9.278409
2023-04-02T09:19:15.097Z,9.278434
2023-04-02T09:20:15.091Z,9.278412
2023-04-02T09:21:15.063Z,9.278457
2023-04-02T09:22:15.078Z,9.278416
2023-04-02T09:23:15.026Z,9.278316
2023-04-02T09:24:15.061Z,9.278386
2023-04-02T09:25:14.994Z,9.278251
2023-04-02T09:26:14.984Z,9.278377
2023-04-02T09:27:15.001Z,9.278358
2023-04-02T09:28:14.954Z,9.278403
2023-04-02T09:29:14.931Z,9.278428
2023-04-02T09:30:14.925Z,9.278439
2023-04-02T09:31:14.925Z,9.278349
2023-04-02T09:32:47.287Z,9.278313
2023-04-02T09:33:14.905Z,9.278360
2023-04-02T09:34:14.859Z,9.278356
2023-04-02T09:35:24.536Z,9.278374
2023-04-02T09:36:16.895Z,9.278507
2023-04-02T09:37:15.831Z,9.278517
2023-04-02T09:38:14.783Z,9.278502
2023-04-02T09:39:14.784Z,9.278455
2023-04-02T09:40:14.773Z,9.278436
2023-04-02T09:41:14.756Z,9.278346
2023-04-02T09:42:14.763Z,9.278432
2023-04-02T09:43:14.721Z,9.278385
2023-04-02T09:44:14.681Z,9.278408
2023-04-02T09:45:14.674Z,9.278454
2023-04-02T09:46:14.723Z,9.278353
2023-04-02T09:47:14.665Z,9.278488
2023-04-02T09:48:14.603Z,9.278404
2023-04-02T09:49:15.625Z,9.278422
2023-04-02T09:50:14.609Z,9.278365
2023-04-02T09:51:14.601Z,9.278336
2023-04-02T09:52:14.593Z,9.278326
2023-04-02T09:53:14.538Z,9.278372
2023-04-02T09:54:14.512Z,9.278333
2023-04-02T09:55:14.512Z,9.278358
2023-04-02T09:56:14.483Z,9.278336
2023-04-02T09:57:14.553Z,9.278350
2023-04-02T09:58:14.442Z,9.278362
2023-04-02T09:59:14.446Z,9.278426
2023-04-02T10:00:29.888Z,9.278412
2023-04-02T10:01:16.467Z,9.278412
2023-04-02T10:02:14.413Z,9.278424
2023-04-02T10:03:14.355Z,9.278453
2023-04-02T10:04:14.475Z,9.278321
2023-04-02T10:05:17.047Z,9.278443
2023-04-02T10:06:15.348Z,9.278648
2023-04-02T10:07:14.324Z,9.278408
2023-04-02T10:08:14.277Z,9.278475
2023-04-02T10:09:14.254Z,9.278382
2023-04-02T10:10:14.242Z,9.278194
2023-04-02T10:11:14.239Z,9.278195
2023-04-02T10:12:14.262Z,9.278318
2023-04-02T10:13:14.206Z,9.278361
2023-04-02T10:14:14.194Z,9.278238
2023-04-02T10:15:14.165Z,9.278235
2023-04-02T10:16:14.228Z,9.278343
2023-04-02T10:17:14.352Z,9.278156
2023-04-02T10:18:14.093Z,9.278199
2023-04-02T10:19:14.090Z,9.278315
2023-04-02T10:20:14.065Z,9.278268
2023-04-02T10:21:14.054Z,9.278351
2023-04-02T10:22:14.037Z,9.278461
2023-04-02T10:23:14.038Z,9.278356
2023-04-02T10:24:13.997Z,9.278259
2023-04-02T10:25:13.976Z,9.278279
2023-04-02T10:26:13.961Z,9.278483
2023-04-02T10:27:13.952Z,9.278334
2023-04-02T10:28:13.973Z,9.278330
2023-04-02T10:29:13.969Z,9.278156
2023-04-02T10:30:13.895Z,9.278310
2023-04-02T10:31:13.940Z,9.278353
2023-04-02T10:32:13.878Z,9.278357
2023-04-02T10:33:13.886Z,9.278312
2023-04-02T10:34:13.849Z,9.278325
2023-04-02T10:35:13.829Z,9.278353
2023-04-02T10:36:13.910Z,9.278345
2023-04-02T10:37:13.777Z,9.278394
2023-04-02T10:38:13.782Z,9.278210
2023-04-02T10:39:13.741Z,9.278412
2023-04-02T10:40:13.746Z,9.278569
2023-04-02T10:41:13.719Z,9.278600
2023-04-02T10:42:13.715Z,9.278584
2023-04-02T10:43:13.714Z,9.278573
2023-04-02T10:44:20.163Z,9.278707
2023-04-02T10:45:15.684Z,9.278671
2023-04-02T10:46:13.679Z,9.278593
2023-04-02T10:47:13.626Z,9.278554
2023-04-02T10:48:13.649Z,9.278653
2023-04-02T10:49:13.606Z,9.278535
2023-04-02T10:50:13.590Z,9.278411
2023-04-02T10:51:13.548Z,9.278337
2023-04-02T10:52:13.532Z,9.278327
2023-04-02T10:53:13.562Z,9.278409
2023-04-02T10:54:13.538Z,9.278367
2023-04-02T10:55:13.483Z,9.278378
2023-04-02T10:56:13.460Z,9.278401
2023-04-02T10:57:13.440Z,9.278416
2023-04-02T10:58:13.515Z,9.278320
2023-04-02T10:59:13.399Z,9.278318
2023-04-02T11:00:13.400Z,9.278319
2023-04-02T11:01:13.467Z,9.278380
2023-04-02T11:02:13.374Z,9.278469
2023-04-02T11:03:13.506Z,9.278467
2023-04-02T11:04:14.302Z,9.278463
2023-04-02T11:05:14.310Z,9.278510
2023-04-02T11:06:13.288Z,9.278476
2023-04-02T11:07:14.997Z,9.278367
2023-04-02T11:08:14.314Z,9.278260
2023-04-02T11:09:13.235Z,9.278373
2023-04-02T11:10:13.217Z,9.278389
2023-04-02T11:11:13.206Z,9.278438
2023-04-02T11:12:13.189Z,9.278476
2023-04-02T11:13:13.202Z,9.278360
2023-04-02T11:14:13.163Z,9.278350
2023-04-02T11:15:13.164Z,9.278358
2023-04-02T11:16:13.150Z,9.278352
2023-04-02T11:17:13.112Z,9.278422
2023-04-02T11:18:13.139Z,9.278399
2023-04-02T11:19:13.129Z,9.278325
2023-04-02T11:20:13.042Z,9.278327
2023-04-02T11:21:13.029Z,9.278365
2023-04-02T11:22:13.033Z,9.278461
2023-04-02T11:23:13.056Z,9.278326
2023-04-02T11:24:12.999Z,9.278385
2023-04-02T11:25:12.987Z,9.278312
2023-04-02T11:26:12.972Z,9.278297
2023-04-02T11:27:12.928Z,9.278352
2023-04-02T11:28:12.948Z,9.278359
2023-04-02T11:29:12.938Z,9.278374
2023-04-02T11:30:12.902Z,9.278324
2023-04-02T11:31:12.873Z,9.278391
2023-04-02T11:32:12.868Z,9.278395
2023-04-02T11:33:13.595Z,9.278417
2023-04-02T11:34:12.834Z,9.278412
2023-04-02T11:35:12.816Z,9.278297
2023-04-02T11:36:12.803Z,9.278334
2023-04-02T11:37:12.769Z,9.278408
2023-04-02T11:38:12.805Z,9.278331
2023-04-02T11:39:17.576Z,9.278366
2023-04-02T11:40:14.732Z,9.278378
2023-04-02T11:41:12.693Z,9.278223
2023-04-02T11:42:12.714Z,9.278055
2023-04-02T11:43:12.831Z,9.278200
2023-04-02T11:44:12.736Z,9.278237
2023-04-02T11:45:12.652Z,9.278243